sensor_id;sensor_type;location;lat;lon;timestamp;P1;durP1;ratioP1;P2;durP2;ratioP2
74269;SDS011;62754;48.252;11.654;2023-03-29T00:01:12;4.53;;;2.47;;
74269;SDS011;62754;48.252;11.654;2023-03-29T00:03:38;4.47;;;2.33;;
74269;SDS011;62754;48.252;11.654;2023-03-29T00:06:03;5.07;;;2.25;;
74269;SDS011;62754;48.252;11.654;2023-03-29T00:08:30;5.13;;;2.35;;
74269;SDS011;62754;48.252;11.654;2023-03-29T00:10:57;4.25;;;2.10;;
74269;SDS011;62754;48.252;11.654;2023-03-29T00:13:26;5.63;;;1.92;;
74269;SDS011;62754;48.252;11.654;2023-03-29T00:15:52;4.47;;;2.40;;
74269;SDS011;62754;48.252;11.654;2023-03-29T00:20:44;3.58;;;1.83;;
74269;SDS011;62754;48.252;11.654;2023-03-29T00:23:10;4.00;;;2.00;;
74269;SDS011;62754;48.252;11.654;2023-03-29T00:25:36;4.65;;;1.92;;
74269;SDS011;62754;48.252;11.654;2023-03-29T00:28:02;5.50;;;2.20;;
74269;SDS011;62754;48.252;11.654;2023-03-29T00:30:29;6.95;;;3.10;;
74269;SDS011;62754;48.252;11.654;2023-03-29T00:32:54;4.15;;;1.90;;
74269;SDS011;62754;48.252;11.654;2023-03-29T00:35:20;3.53;;;1.75;;
74269;SDS011;62754;48.252;11.654;2023-03-29T00:37:46;4.57;;;1.70;;
74269;SDS011;62754;48.252;11.654;2023-03-29T00:40:12;3.53;;;1.75;;
74269;SDS011;62754;48.252;11.654;2023-03-29T00:42:38;4.03;;;1.65;;
74269;SDS011;62754;48.252;11.654;2023-03-29T00:47:54;3.85;;;1.80;;
74269;SDS011;62754;48.252;11.654;2023-03-29T00:50:29;3.60;;;1.50;;
74269;SDS011;62754;48.252;11.654;2023-03-29T00:53:03;2.85;;;1.70;;
74269;SDS011;62754;48.252;11.654;2023-03-29T00:55:43;4.38;;;1.88;;
74269;SDS011;62754;48.252;11.654;2023-03-29T00:58:26;5.95;;;1.90;;
74269;SDS011;62754;48.252;11.654;2023-03-29T01:00:58;2.78;;;1.50;;
74269;SDS011;62754;48.252;11.654;2023-03-29T01:03:32;4.55;;;2.03;;
74269;SDS011;62754;48.252;11.654;2023-03-29T01:06:04;5.68;;;1.90;;
74269;SDS011;62754;48.252;11.654;2023-03-29T01:08:38;2.75;;;1.48;;
74269;SDS011;62754;48.252;11.654;2023-03-29T01:11:18;2.85;;;1.65;;
74269;SDS011;62754;48.252;11.654;2023-03-29T01:16:39;2.75;;;1.60;;
74269;SDS011;62754;48.252;11.654;2023-03-29T01:19:06;3.35;;;1.75;;
74269;SDS011;62754;48.252;11.654;2023-03-29T01:24:43;3.67;;;1.55;;
74269;SDS011;62754;48.252;11.654;2023-03-29T01:27:36;4.65;;;1.70;;
74269;SDS011;62754;48.252;11.654;2023-03-29T01:30:13;2.75;;;1.40;;
74269;SDS011;62754;48.252;11.654;2023-03-29T01:33:01;4.38;;;1.33;;
74269;SDS011;62754;48.252;11.654;2023-03-29T01:35:35;3.63;;;1.15;;
74269;SDS011;62754;48.252;11.654;2023-03-29T01:38:12;2.90;;;1.30;;
74269;SDS011;62754;48.252;11.654;2023-03-29T01:40:50;2.40;;;1.30;;
74269;SDS011;62754;48.252;11.654;2023-03-29T01:51:41;2.17;;;1.00;;
74269;SDS011;62754;48.252;11.654;2023-03-29T01:54:20;3.42;;;1.20;;
74269;SDS011;62754;48.252;11.654;2023-03-29T01:56:52;2.72;;;1.08;;
74269;SDS011;62754;48.252;11.654;2023-03-29T01:59:22;2.72;;;1.20;;
74269;SDS011;62754;48.252;11.654;2023-03-29T02:01:55;3.38;;;1.27;;
74269;SDS011;62754;48.252;11.654;2023-03-29T02:04:26;3.35;;;1.20;;
74269;SDS011;62754;48.252;11.654;2023-03-29T02:06:56;3.33;;;1.25;;
74269;SDS011;62754;48.252;11.654;2023-03-29T02:09:25;3.10;;;1.48;;
74269;SDS011;62754;48.252;11.654;2023-03-29T02:11:52;4.95;;;1.20;;
74269;SDS011;62754;48.252;11.654;2023-03-29T02:14:23;5.85;;;1.13;;
74269;SDS011;62754;48.252;11.654;2023-03-29T02:16:50;2.45;;;1.20;;
74269;SDS011;62754;48.252;11.654;2023-03-29T02:19:16;3.55;;;1.20;;
74269;SDS011;62754;48.252;11.654;2023-03-29T02:21:48;3.50;;;1.08;;
74269;SDS011;62754;48.252;11.654;2023-03-29T02:24:20;3.10;;;1.13;;
74269;SDS011;62754;48.252;11.654;2023-03-29T02:26:48;2.88;;;1.40;;
74269;SDS011;62754;48.252;11.654;2023-03-29T02:29:14;3.45;;;1.13;;
74269;SDS011;62754;48.252;11.654;2023-03-29T02:32:01;2.50;;;1.15;;
74269;SDS011;62754;48.252;11.654;2023-03-29T02:36:58;2.45;;;1.15;;
74269;SDS011;62754;48.252;11.654;2023-03-29T02:39:27;2.88;;;1.10;;
74269;SDS011;62754;48.252;11.654;2023-03-29T02:41:56;1.95;;;1.05;;
74269;SDS011;62754;48.252;11.654;2023-03-29T02:44:23;2.20;;;0.90;;
74269;SDS011;62754;48.252;11.654;2023-03-29T02:46:53;2.22;;;1.20;;
74269;SDS011;62754;48.252;11.654;2023-03-29T02:49:26;3.22;;;0.75;;
74269;SDS011;62754;48.252;11.654;2023-03-29T02:51:53;2.88;;;1.30;;
74269;SDS011;62754;48.252;11.654;2023-03-29T02:54:22;2.10;;;1.00;;
74269;SDS011;62754;48.252;11.654;2023-03-29T02:56:55;2.13;;;1.00;;
74269;SDS011;62754;48.252;11.654;2023-03-29T02:59:25;2.15;;;1.02;;
74269;SDS011;62754;48.252;11.654;2023-03-29T03:01:51;3.00;;;1.17;;
74269;SDS011;62754;48.252;11.654;2023-03-29T03:04:17;2.15;;;1.00;;
74269;SDS011;62754;48.252;11.654;2023-03-29T03:06:44;1.90;;;0.93;;
74269;SDS011;62754;48.252;11.654;2023-03-29T03:09:09;2.78;;;1.23;;
74269;SDS011;62754;48.252;11.654;2023-03-29T03:11:35;2.00;;;1.10;;
74269;SDS011;62754;48.252;11.654;2023-03-29T03:14:01;2.33;;;1.00;;
74269;SDS011;62754;48.252;11.654;2023-03-29T03:16:26;2.47;;;1.10;;
74269;SDS011;62754;48.252;11.654;2023-03-29T03:18:52;2.72;;;1.13;;
74269;SDS011;62754;48.252;11.654;2023-03-29T03:21:18;1.63;;;0.85;;
74269;SDS011;62754;48.252;11.654;2023-03-29T03:23:45;2.05;;;0.75;;
74269;SDS011;62754;48.252;11.654;2023-03-29T03:26:11;2.17;;;0.90;;
74269;SDS011;62754;48.252;11.654;2023-03-29T03:28:37;1.20;;;0.60;;
74269;SDS011;62754;48.252;11.654;2023-03-29T03:31:04;3.22;;;0.95;;
74269;SDS011;62754;48.252;11.654;2023-03-29T03:33:30;2.58;;;0.90;;
74269;SDS011;62754;48.252;11.654;2023-03-29T03:35:56;1.83;;;0.73;;
74269;SDS011;62754;48.252;11.654;2023-03-29T03:38:22;3.60;;;0.70;;
74269;SDS011;62754;48.252;11.654;2023-03-29T03:40:53;2.67;;;0.80;;
74269;SDS011;62754;48.252;11.654;2023-03-29T03:43:20;2.50;;;0.70;;
74269;SDS011;62754;48.252;11.654;2023-03-29T03:45:46;3.20;;;0.90;;
74269;SDS011;62754;48.252;11.654;2023-03-29T03:48:12;2.53;;;0.90;;
74269;SDS011;62754;48.252;11.654;2023-03-29T03:50:38;3.47;;;1.02;;
74269;SDS011;62754;48.252;11.654;2023-03-29T03:53:04;2.35;;;0.75;;
74269;SDS011;62754;48.252;11.654;2023-03-29T03:55:30;2.70;;;0.80;;
74269;SDS011;62754;48.252;11.654;2023-03-29T03:57:56;1.88;;;0.80;;
74269;SDS011;62754;48.252;11.654;2023-03-29T04:00:22;1.80;;;0.60;;
74269;SDS011;62754;48.252;11.654;2023-03-29T04:02:48;1.45;;;0.70;;
74269;SDS011;62754;48.252;11.654;2023-03-29T04:05:14;3.05;;;0.95;;
74269;SDS011;62754;48.252;11.654;2023-03-29T04:07:41;2.20;;;1.00;;
74269;SDS011;62754;48.252;11.654;2023-03-29T04:10:07;2.10;;;0.90;;
74269;SDS011;62754;48.252;11.654;2023-03-29T04:12:33;1.70;;;0.70;;
74269;SDS011;62754;48.252;11.654;2023-03-29T04:15:00;2.03;;;0.90;;
74269;SDS011;62754;48.252;11.654;2023-03-29T04:17:26;1.65;;;0.70;;
74269;SDS011;62754;48.252;11.654;2023-03-29T04:19:51;2.03;;;0.93;;
74269;SDS011;62754;48.252;11.654;2023-03-29T04:22:17;2.00;;;0.85;;
74269;SDS011;62754;48.252;11.654;2023-03-29T04:24:43;2.08;;;0.70;;
74269;SDS011;62754;48.252;11.654;2023-03-29T04:27:09;1.65;;;0.80;;
74269;SDS011;62754;48.252;11.654;2023-03-29T04:29:34;2.05;;;0.77;;
74269;SDS011;62754;48.252;11.654;2023-03-29T04:32:00;1.40;;;0.73;;
74269;SDS011;62754;48.252;11.654;2023-03-29T04:34:26;1.70;;;0.80;;
74269;SDS011;62754;48.252;11.654;2023-03-29T04:36:52;1.65;;;0.65;;
74269;SDS011;62754;48.252;11.654;2023-03-29T04:39:17;2.42;;;0.85;;
74269;SDS011;62754;48.252;11.654;2023-03-29T04:41:43;2.75;;;0.70;;
74269;SDS011;62754;48.252;11.654;2023-03-29T04:44:12;1.95;;;0.80;;
74269;SDS011;62754;48.252;11.654;2023-03-29T04:46:38;1.58;;;0.57;;
74269;SDS011;62754;48.252;11.654;2023-03-29T04:49:03;1.30;;;0.60;;
74269;SDS011;62754;48.252;11.654;2023-03-29T04:51:29;1.98;;;0.63;;
74269;SDS011;62754;48.252;11.654;2023-03-29T04:53:55;1.67;;;0.77;;
74269;SDS011;62754;48.252;11.654;2023-03-29T04:56:21;3.88;;;0.80;;
74269;SDS011;62754;48.252;11.654;2023-03-29T04:58:46;1.20;;;0.50;;
74269;SDS011;62754;48.252;11.654;2023-03-29T05:01:12;1.73;;;0.52;;
74269;SDS011;62754;48.252;11.654;2023-03-29T05:03:38;1.92;;;0.75;;
74269;SDS011;62754;48.252;11.654;2023-03-29T05:06:04;1.85;;;0.63;;
74269;SDS011;62754;48.252;11.654;2023-03-29T05:08:32;2.33;;;0.80;;
74269;SDS011;62754;48.252;11.654;2023-03-29T05:10:58;1.20;;;0.55;;
74269;SDS011;62754;48.252;11.654;2023-03-29T05:13:24;1.20;;;0.60;;
74269;SDS011;62754;48.252;11.654;2023-03-29T05:15:50;2.78;;;0.57;;
74269;SDS011;62754;48.252;11.654;2023-03-29T05:18:16;1.85;;;0.70;;
74269;SDS011;62754;48.252;11.654;2023-03-29T05:20:44;1.52;;;0.63;;
74269;SDS011;62754;48.252;11.654;2023-03-29T05:23:10;2.08;;;0.75;;
74269;SDS011;62754;48.252;11.654;2023-03-29T05:25:36;2.38;;;0.80;;
74269;SDS011;62754;48.252;11.654;2023-03-29T05:28:02;1.95;;;0.65;;
74269;SDS011;62754;48.252;11.654;2023-03-29T05:30:28;1.92;;;0.70;;
74269;SDS011;62754;48.252;11.654;2023-03-29T05:32:53;1.58;;;0.70;;
74269;SDS011;62754;48.252;11.654;2023-03-29T05:35:22;1.98;;;0.90;;
74269;SDS011;62754;48.252;11.654;2023-03-29T05:37:48;2.58;;;0.68;;
74269;SDS011;62754;48.252;11.654;2023-03-29T05:40:13;2.58;;;0.80;;
74269;SDS011;62754;48.252;11.654;2023-03-29T05:42:39;1.42;;;0.68;;
74269;SDS011;62754;48.252;11.654;2023-03-29T05:45:05;3.13;;;0.93;;
74269;SDS011;62754;48.252;11.654;2023-03-29T05:47:31;1.67;;;0.70;;
74269;SDS011;62754;48.252;11.654;2023-03-29T05:49:57;2.22;;;0.93;;
74269;SDS011;62754;48.252;11.654;2023-03-29T05:52:23;2.28;;;1.00;;
74269;SDS011;62754;48.252;11.654;2023-03-29T05:54:48;2.70;;;1.20;;
74269;SDS011;62754;48.252;11.654;2023-03-29T05:57:14;4.88;;;1.02;;
74269;SDS011;62754;48.252;11.654;2023-03-29T05:59:40;4.63;;;1.17;;
74269;SDS011;62754;48.252;11.654;2023-03-29T06:02:09;2.90;;;0.90;;
74269;SDS011;62754;48.252;11.654;2023-03-29T06:04:35;5.22;;;1.35;;
74269;SDS011;62754;48.252;11.654;2023-03-29T06:07:01;8.13;;;1.25;;
74269;SDS011;62754;48.252;11.654;2023-03-29T06:09:27;3.25;;;1.02;;
74269;SDS011;62754;48.252;11.654;2023-03-29T06:11:53;4.00;;;1.52;;
74269;SDS011;62754;48.252;11.654;2023-03-29T06:14:18;3.38;;;0.70;;
74269;SDS011;62754;48.252;11.654;2023-03-29T06:16:44;1.70;;;0.70;;
74269;SDS011;62754;48.252;11.654;2023-03-29T06:19:10;1.80;;;0.65;;
74269;SDS011;62754;48.252;11.654;2023-03-29T06:21:39;2.33;;;0.88;;
74269;SDS011;62754;48.252;11.654;2023-03-29T06:24:04;1.80;;;0.50;;
74269;SDS011;62754;48.252;11.654;2023-03-29T06:26:30;1.40;;;0.70;;
74269;SDS011;62754;48.252;11.654;2023-03-29T06:28:56;1.67;;;0.50;;
74269;SDS011;62754;48.252;11.654;2023-03-29T06:31:22;1.88;;;0.60;;
74269;SDS011;62754;48.252;11.654;2023-03-29T06:33:47;1.25;;;0.40;;
74269;SDS011;62754;48.252;11.654;2023-03-29T06:36:13;1.60;;;0.60;;
74269;SDS011;62754;48.252;11.654;2023-03-29T06:38:39;1.38;;;0.50;;
74269;SDS011;62754;48.252;11.654;2023-03-29T06:41:08;1.73;;;0.40;;
74269;SDS011;62754;48.252;11.654;2023-03-29T06:43:34;1.98;;;0.50;;
74269;SDS011;62754;48.252;11.654;2023-03-29T06:46:00;1.63;;;0.40;;
74269;SDS011;62754;48.252;11.654;2023-03-29T06:48:26;2.80;;;0.60;;
74269;SDS011;62754;48.252;11.654;2023-03-29T06:50:51;3.88;;;0.50;;
74269;SDS011;62754;48.252;11.654;2023-03-29T06:53:17;1.02;;;0.50;;
74269;SDS011;62754;48.252;11.654;2023-03-29T06:55:43;1.20;;;0.50;;
74269;SDS011;62754;48.252;11.654;2023-03-29T06:58:09;2.70;;;0.88;;
74269;SDS011;62754;48.252;11.654;2023-03-29T07:00:34;2.78;;;0.82;;
74269;SDS011;62754;48.252;11.654;2023-03-29T07:03:03;2.05;;;0.60;;
74269;SDS011;62754;48.252;11.654;2023-03-29T07:05:32;4.03;;;0.73;;
74269;SDS011;62754;48.252;11.654;2023-03-29T07:08:04;2.22;;;0.43;;
74269;SDS011;62754;48.252;11.654;2023-03-29T07:10:31;1.17;;;0.47;;
74269;SDS011;62754;48.252;11.654;2023-03-29T07:13:01;3.10;;;0.65;;
74269;SDS011;62754;48.252;11.654;2023-03-29T07:15:27;2.08;;;0.60;;
74269;SDS011;62754;48.252;11.654;2023-03-29T07:17:53;1.58;;;0.60;;
74269;SDS011;62754;48.252;11.654;2023-03-29T07:20:19;2.22;;;0.50;;
74269;SDS011;62754;48.252;11.654;2023-03-29T07:22:45;2.08;;;0.70;;
74269;SDS011;62754;48.252;11.654;2023-03-29T07:27:38;2.10;;;0.60;;
74269;SDS011;62754;48.252;11.654;2023-03-29T07:30:05;3.28;;;0.47;;
74269;SDS011;62754;48.252;11.654;2023-03-29T07:32:32;2.70;;;0.70;;
74269;SDS011;62754;48.252;11.654;2023-03-29T07:34:58;1.85;;;0.40;;
74269;SDS011;62754;48.252;11.654;2023-03-29T07:37:24;3.58;;;0.70;;
74269;SDS011;62754;48.252;11.654;2023-03-29T07:39:50;3.72;;;0.60;;
74269;SDS011;62754;48.252;11.654;2023-03-29T07:42:15;3.45;;;0.60;;
74269;SDS011;62754;48.252;11.654;2023-03-29T07:44:41;1.45;;;0.57;;
74269;SDS011;62754;48.252;11.654;2023-03-29T07:47:07;3.05;;;0.70;;
74269;SDS011;62754;48.252;11.654;2023-03-29T07:49:33;2.50;;;0.65;;
74269;SDS011;62754;48.252;11.654;2023-03-29T07:51:58;3.17;;;0.75;;
74269;SDS011;62754;48.252;11.654;2023-03-29T07:54:24;1.42;;;0.50;;
74269;SDS011;62754;48.252;11.654;2023-03-29T07:56:50;1.73;;;0.50;;
74269;SDS011;62754;48.252;11.654;2023-03-29T07:59:16;3.72;;;0.85;;
74269;SDS011;62754;48.252;11.654;2023-03-29T08:01:41;1.85;;;0.70;;
74269;SDS011;62754;48.252;11.654;2023-03-29T08:04:07;1.55;;;0.60;;
74269;SDS011;62754;48.252;11.654;2023-03-29T08:06:33;2.80;;;0.60;;
74269;SDS011;62754;48.252;11.654;2023-03-29T08:08:59;9.40;;;1.00;;
74269;SDS011;62754;48.252;11.654;2023-03-29T08:11:24;2.95;;;0.60;;
74269;SDS011;62754;48.252;11.654;2023-03-29T08:13:50;1.58;;;0.60;;
74269;SDS011;62754;48.252;11.654;2023-03-29T08:16:16;2.30;;;0.60;;
74269;SDS011;62754;48.252;11.654;2023-03-29T08:18:42;3.03;;;0.70;;
74269;SDS011;62754;48.252;11.654;2023-03-29T08:21:08;6.60;;;0.75;;
74269;SDS011;62754;48.252;11.654;2023-03-29T08:23:34;2.80;;;0.60;;
74269;SDS011;62754;48.252;11.654;2023-03-29T08:26:00;3.83;;;0.60;;
74269;SDS011;62754;48.252;11.654;2023-03-29T08:28:26;3.42;;;0.80;;
74269;SDS011;62754;48.252;11.654;2023-03-29T08:30:52;1.73;;;0.60;;
74269;SDS011;62754;48.252;11.654;2023-03-29T08:33:18;2.67;;;0.70;;
74269;SDS011;62754;48.252;11.654;2023-03-29T08:35:43;2.67;;;0.60;;
74269;SDS011;62754;48.252;11.654;2023-03-29T08:38:09;2.33;;;0.73;;
74269;SDS011;62754;48.252;11.654;2023-03-29T08:40:35;2.20;;;0.50;;
74269;SDS011;62754;48.252;11.654;2023-03-29T08:43:04;1.83;;;0.60;;
74269;SDS011;62754;48.252;11.654;2023-03-29T08:45:43;4.18;;;0.80;;
74269;SDS011;62754;48.252;11.654;2023-03-29T08:48:23;1.98;;;0.52;;
74269;SDS011;62754;48.252;11.654;2023-03-29T08:50:52;4.13;;;1.50;;
74269;SDS011;62754;48.252;11.654;2023-03-29T08:53:29;3.38;;;0.80;;
74269;SDS011;62754;48.252;11.654;2023-03-29T08:56:01;2.67;;;0.80;;
74269;SDS011;62754;48.252;11.654;2023-03-29T08:58:32;1.48;;;0.50;;
74269;SDS011;62754;48.252;11.654;2023-03-29T09:00:59;1.83;;;0.85;;
74269;SDS011;62754;48.252;11.654;2023-03-29T09:03:29;2.15;;;0.90;;
74269;SDS011;62754;48.252;11.654;2023-03-29T09:06:02;2.40;;;0.80;;
74269;SDS011;62754;48.252;11.654;2023-03-29T09:08:31;2.38;;;0.90;;
74269;SDS011;62754;48.252;11.654;2023-03-29T09:17:14;3.85;;;0.80;;
74269;SDS011;62754;48.252;11.654;2023-03-29T09:22:45;2.20;;;0.70;;
74269;SDS011;62754;48.252;11.654;2023-03-29T09:25:41;2.08;;;0.50;;
74269;SDS011;62754;48.252;11.654;2023-03-29T09:28:32;1.92;;;0.40;;
74269;SDS011;62754;48.252;11.654;2023-03-29T09:33:39;2.22;;;0.73;;
74269;SDS011;62754;48.252;11.654;2023-03-29T09:39:02;1.88;;;0.70;;
74269;SDS011;62754;48.252;11.654;2023-03-29T09:41:34;3.17;;;0.70;;
74269;SDS011;62754;48.252;11.654;2023-03-29T09:44:09;2.70;;;0.60;;
74269;SDS011;62754;48.252;11.654;2023-03-29T09:46:41;3.67;;;0.90;;
74269;SDS011;62754;48.252;11.654;2023-03-29T09:49:17;2.60;;;0.85;;
74269;SDS011;62754;48.252;11.654;2023-03-29T09:51:47;1.88;;;0.70;;
74269;SDS011;62754;48.252;11.654;2023-03-29T09:54:14;3.58;;;0.82;;
74269;SDS011;62754;48.252;11.654;2023-03-29T09:56:39;3.45;;;0.40;;
74269;SDS011;62754;48.252;11.654;2023-03-29T09:59:05;5.80;;;0.90;;
74269;SDS011;62754;48.252;11.654;2023-03-29T10:01:35;3.45;;;0.68;;
74269;SDS011;62754;48.252;11.654;2023-03-29T10:04:04;2.20;;;0.70;;
74269;SDS011;62754;48.252;11.654;2023-03-29T10:06:31;2.67;;;0.55;;
74269;SDS011;62754;48.252;11.654;2023-03-29T10:08:57;2.83;;;0.75;;
74269;SDS011;62754;48.252;11.654;2023-03-29T10:11:30;4.15;;;1.00;;
74269;SDS011;62754;48.252;11.654;2023-03-29T10:14:02;3.17;;;0.70;;
74269;SDS011;62754;48.252;11.654;2023-03-29T10:16:41;2.92;;;0.80;;
74269;SDS011;62754;48.252;11.654;2023-03-29T10:19:19;2.60;;;0.90;;
74269;SDS011;62754;48.252;11.654;2023-03-29T10:21:47;3.28;;;0.80;;
74269;SDS011;62754;48.252;11.654;2023-03-29T10:24:18;2.58;;;0.80;;
74269;SDS011;62754;48.252;11.654;2023-03-29T10:26:45;2.92;;;0.73;;
74269;SDS011;62754;48.252;11.654;2023-03-29T10:29:11;2.38;;;0.52;;
74269;SDS011;62754;48.252;11.654;2023-03-29T10:31:38;2.38;;;0.85;;
74269;SDS011;62754;48.252;11.654;2023-03-29T10:34:04;3.65;;;0.77;;
74269;SDS011;62754;48.252;11.654;2023-03-29T10:38:57;4.28;;;1.15;;
74269;SDS011;62754;48.252;11.654;2023-03-29T10:41:25;2.17;;;0.60;;
74269;SDS011;62754;48.252;11.654;2023-03-29T10:43:51;3.35;;;1.00;;
74269;SDS011;62754;48.252;11.654;2023-03-29T10:46:19;3.55;;;0.90;;
74269;SDS011;62754;48.252;11.654;2023-03-29T10:49:17;1.60;;;0.70;;
74269;SDS011;62754;48.252;11.654;2023-03-29T10:51:45;1.80;;;0.50;;
74269;SDS011;62754;48.252;11.654;2023-03-29T10:54:14;3.70;;;1.33;;
74269;SDS011;62754;48.252;11.654;2023-03-29T10:56:47;4.97;;;0.90;;
74269;SDS011;62754;48.252;11.654;2023-03-29T11:10:00;1.88;;;0.75;;
74269;SDS011;62754;48.252;11.654;2023-03-29T11:12:48;2.45;;;0.80;;
74269;SDS011;62754;48.252;11.654;2023-03-29T11:15:39;2.85;;;0.82;;
74269;SDS011;62754;48.252;11.654;2023-03-29T11:32:30;2.28;;;0.80;;
74269;SDS011;62754;48.252;11.654;2023-03-29T11:40:45;2.40;;;0.70;;
74269;SDS011;62754;48.252;11.654;2023-03-29T11:43:16;2.45;;;0.90;;
74269;SDS011;62754;48.252;11.654;2023-03-29T11:46:12;4.18;;;1.20;;
74269;SDS011;62754;48.252;11.654;2023-03-29T11:48:48;2.75;;;0.80;;
74269;SDS011;62754;48.252;11.654;2023-03-29T11:56:23;2.28;;;0.82;;
74269;SDS011;62754;48.252;11.654;2023-03-29T12:01:27;2.28;;;0.75;;
74269;SDS011;62754;48.252;11.654;2023-03-29T12:04:02;5.45;;;0.68;;
74269;SDS011;62754;48.252;11.654;2023-03-29T12:06:58;1.52;;;0.60;;
74269;SDS011;62754;48.252;11.654;2023-03-29T12:12:09;4.80;;;0.80;;
74269;SDS011;62754;48.252;11.654;2023-03-29T12:15:15;2.70;;;0.80;;
74269;SDS011;62754;48.252;11.654;2023-03-29T12:17:49;2.38;;;0.70;;
74269;SDS011;62754;48.252;11.654;2023-03-29T12:20:23;2.10;;;0.80;;
74269;SDS011;62754;48.252;11.654;2023-03-29T12:22:52;2.50;;;0.73;;
74269;SDS011;62754;48.252;11.654;2023-03-29T12:25:22;4.53;;;0.90;;
74269;SDS011;62754;48.252;11.654;2023-03-29T12:39:14;3.92;;;1.00;;
74269;SDS011;62754;48.252;11.654;2023-03-29T12:41:41;2.65;;;0.77;;
74269;SDS011;62754;48.252;11.654;2023-03-29T12:44:10;3.72;;;1.20;;
74269;SDS011;62754;48.252;11.654;2023-03-29T12:46:38;3.28;;;0.90;;
74269;SDS011;62754;48.252;11.654;2023-03-29T12:49:13;2.22;;;0.70;;
74269;SDS011;62754;48.252;11.654;2023-03-29T12:51:51;5.18;;;0.82;;
74269;SDS011;62754;48.252;11.654;2023-03-29T12:54:21;4.88;;;0.80;;
74269;SDS011;62754;48.252;11.654;2023-03-29T12:59:23;4.68;;;0.70;;
74269;SDS011;62754;48.252;11.654;2023-03-29T13:01:59;4.05;;;0.82;;
74269;SDS011;62754;48.252;11.654;2023-03-29T13:04:47;2.72;;;0.70;;
74269;SDS011;62754;48.252;11.654;2023-03-29T13:09:53;1.85;;;0.55;;
74269;SDS011;62754;48.252;11.654;2023-03-29T13:14:59;1.77;;;0.57;;
74269;SDS011;62754;48.252;11.654;2023-03-29T13:25:45;2.33;;;0.70;;
74269;SDS011;62754;48.252;11.654;2023-03-29T13:30:51;3.22;;;0.85;;
74269;SDS011;62754;48.252;11.654;2023-03-29T13:33:43;2.50;;;0.63;;
74269;SDS011;62754;48.252;11.654;2023-03-29T13:39:13;3.28;;;0.70;;
74269;SDS011;62754;48.252;11.654;2023-03-29T13:41:47;2.63;;;0.70;;
74269;SDS011;62754;48.252;11.654;2023-03-29T13:44:16;3.03;;;0.95;;
74269;SDS011;62754;48.252;11.654;2023-03-29T13:47:00;4.45;;;1.17;;
74269;SDS011;62754;48.252;11.654;2023-03-29T13:49:27;2.85;;;1.00;;
74269;SDS011;62754;48.252;11.654;2023-03-29T13:54:41;4.53;;;0.98;;
74269;SDS011;62754;48.252;11.654;2023-03-29T13:57:30;4.63;;;1.10;;
74269;SDS011;62754;48.252;11.654;2023-03-29T14:02:47;3.58;;;1.10;;
74269;SDS011;62754;48.252;11.654;2023-03-29T14:05:18;4.85;;;1.10;;
74269;SDS011;62754;48.252;11.654;2023-03-29T14:07:49;4.47;;;1.08;;
74269;SDS011;62754;48.252;11.654;2023-03-29T14:10:26;3.72;;;1.08;;
74269;SDS011;62754;48.252;11.654;2023-03-29T14:12:59;2.35;;;0.95;;
74269;SDS011;62754;48.252;11.654;2023-03-29T14:15:25;6.28;;;1.10;;
74269;SDS011;62754;48.252;11.654;2023-03-29T14:18:00;3.15;;;0.90;;
74269;SDS011;62754;48.252;11.654;2023-03-29T14:20:26;3.42;;;1.08;;
74269;SDS011;62754;48.252;11.654;2023-03-29T14:25:18;3.55;;;1.10;;
74269;SDS011;62754;48.252;11.654;2023-03-29T14:27:45;3.25;;;1.00;;
74269;SDS011;62754;48.252;11.654;2023-03-29T14:33:11;2.53;;;0.80;;
74269;SDS011;62754;48.252;11.654;2023-03-29T14:35:38;3.35;;;0.82;;
74269;SDS011;62754;48.252;11.654;2023-03-29T14:38:04;3.85;;;0.52;;
74269;SDS011;62754;48.252;11.654;2023-03-29T14:40:30;2.88;;;0.90;;
74269;SDS011;62754;48.252;11.654;2023-03-29T14:42:56;2.13;;;0.52;;
74269;SDS011;62754;48.252;11.654;2023-03-29T14:45:27;2.70;;;0.80;;
74269;SDS011;62754;48.252;11.654;2023-03-29T14:47:53;2.45;;;0.60;;
74269;SDS011;62754;48.252;11.654;2023-03-29T14:50:25;3.42;;;0.80;;
74269;SDS011;62754;48.252;11.654;2023-03-29T14:52:53;6.80;;;0.82;;
74269;SDS011;62754;48.252;11.654;2023-03-29T14:55:22;3.33;;;0.80;;
74269;SDS011;62754;48.252;11.654;2023-03-29T14:57:49;1.77;;;0.63;;
74269;SDS011;62754;48.252;11.654;2023-03-29T15:00:26;2.28;;;0.68;;
74269;SDS011;62754;48.252;11.654;2023-03-29T15:03:11;2.25;;;0.85;;
74269;SDS011;62754;48.252;11.654;2023-03-29T15:05:39;3.35;;;0.70;;
74269;SDS011;62754;48.252;11.654;2023-03-29T15:08:06;2.15;;;0.70;;
74269;SDS011;62754;48.252;11.654;2023-03-29T15:10:37;3.00;;;0.77;;
74269;SDS011;62754;48.252;11.654;2023-03-29T15:13:05;4.70;;;1.00;;
74269;SDS011;62754;48.252;11.654;2023-03-29T15:15:32;2.65;;;0.80;;
74269;SDS011;62754;48.252;11.654;2023-03-29T15:18:01;3.00;;;0.90;;
74269;SDS011;62754;48.252;11.654;2023-03-29T15:20:31;2.55;;;0.70;;
74269;SDS011;62754;48.252;11.654;2023-03-29T15:23:18;3.45;;;1.00;;
74269;SDS011;62754;48.252;11.654;2023-03-29T15:28:23;2.67;;;0.70;;
74269;SDS011;62754;48.252;11.654;2023-03-29T15:30:58;4.75;;;1.00;;
74269;SDS011;62754;48.252;11.654;2023-03-29T15:33:30;3.10;;;0.80;;
74269;SDS011;62754;48.252;11.654;2023-03-29T15:36:01;4.05;;;1.33;;
74269;SDS011;62754;48.252;11.654;2023-03-29T15:38:28;4.10;;;0.73;;
74269;SDS011;62754;48.252;11.654;2023-03-29T15:40:54;2.10;;;0.80;;
74269;SDS011;62754;48.252;11.654;2023-03-29T15:43:20;6.57;;;1.25;;
74269;SDS011;62754;48.252;11.654;2023-03-29T15:45:46;3.58;;;0.60;;
74269;SDS011;62754;48.252;11.654;2023-03-29T15:48:13;2.90;;;0.70;;
74269;SDS011;62754;48.252;11.654;2023-03-29T15:50:48;2.75;;;0.70;;
74269;SDS011;62754;48.252;11.654;2023-03-29T15:53:14;4.03;;;0.98;;
74269;SDS011;62754;48.252;11.654;2023-03-29T15:55:42;2.30;;;0.85;;
74269;SDS011;62754;48.252;11.654;2023-03-29T15:58:11;3.67;;;0.90;;
74269;SDS011;62754;48.252;11.654;2023-03-29T16:00:40;2.58;;;0.80;;
74269;SDS011;62754;48.252;11.654;2023-03-29T16:03:11;2.90;;;0.80;;
74269;SDS011;62754;48.252;11.654;2023-03-29T16:05:39;4.15;;;0.80;;
74269;SDS011;62754;48.252;11.654;2023-03-29T16:08:07;3.50;;;0.80;;
74269;SDS011;62754;48.252;11.654;2023-03-29T16:10:37;4.00;;;1.08;;
74269;SDS011;62754;48.252;11.654;2023-03-29T16:13:03;2.40;;;0.80;;
74269;SDS011;62754;48.252;11.654;2023-03-29T16:15:29;5.40;;;0.90;;
74269;SDS011;62754;48.252;11.654;2023-03-29T16:17:56;3.50;;;0.95;;
74269;SDS011;62754;48.252;11.654;2023-03-29T16:20:22;2.70;;;0.70;;
74269;SDS011;62754;48.252;11.654;2023-03-29T16:22:48;4.18;;;1.00;;
74269;SDS011;62754;48.252;11.654;2023-03-29T16:25:14;3.63;;;0.90;;
74269;SDS011;62754;48.252;11.654;2023-03-29T16:27:43;5.45;;;1.05;;
74269;SDS011;62754;48.252;11.654;2023-03-29T16:30:09;3.63;;;1.08;;
74269;SDS011;62754;48.252;11.654;2023-03-29T16:32:35;4.10;;;0.90;;
74269;SDS011;62754;48.252;11.654;2023-03-29T16:35:01;2.47;;;0.90;;
74269;SDS011;62754;48.252;11.654;2023-03-29T16:37:27;5.63;;;1.00;;
74269;SDS011;62754;48.252;11.654;2023-03-29T16:39:53;3.00;;;0.98;;
74269;SDS011;62754;48.252;11.654;2023-03-29T16:42:18;4.68;;;0.82;;
74269;SDS011;62754;48.252;11.654;2023-03-29T16:44:44;4.20;;;1.15;;
74269;SDS011;62754;48.252;11.654;2023-03-29T16:47:10;2.72;;;0.77;;
74269;SDS011;62754;48.252;11.654;2023-03-29T16:49:36;3.17;;;0.80;;
74269;SDS011;62754;48.252;11.654;2023-03-29T16:52:02;1.30;;;0.70;;
74269;SDS011;62754;48.252;11.654;2023-03-29T16:54:27;4.47;;;1.00;;